Time;durP1;ratioP1;P1;durP2;ratioP2;P2;SDS_P1;SDS_P2;PMS_P1;PMS_P2;Temp;Humidity;BMP_temperature;BMP_pressure;BME280_temperature;BME280_humidity;BME280_pressure;Samples;Min_cycle;Max_cycle;Signal;HPM_P1;HPM_P2
2023/12/11 00:01:09;;;;;;;2.42;0.40;;;10.00;99.90;;;;;;4974956;28;20093;-79
2023/12/11 00:03:35;;;;;;;2.30;0.40;;;10.00;99.90;;;;;;4975175;28;20023;-79
2023/12/11 00:06:01;;;;;;;2.42;0.60;;;10.00;99.90;;;;;;4977373;28;20041;-80
2023/12/11 00:08:26;;;;;;;3.83;0.50;;;9.90;99.90;;;;;;4972461;28;20117;-78
2023/12/11 00:10:52;;;;;;;2.33;0.32;;;9.90;99.90;;;;;;4976243;28;20035;-79
2023/12/11 00:13:17;;;;;;;0.43;0.20;;;9.90;99.90;;;;;;4976016;28;20141;-80
2023/12/11 00:15:43;;;;;;;1.30;0.47;;;9.90;99.90;;;;;;4971115;28;20529;-79
2023/12/11 00:18:09;;;;;;;3.20;0.40;;;9.80;99.90;;;;;;4975185;28;20492;-79
2023/12/11 00:20:34;;;;;;;1.42;0.50;;;9.80;99.90;;;;;;4977788;28;20082;-79
2023/12/11 00:23:00;;;;;;;4.03;0.60;;;9.80;99.90;;;;;;4975898;28;20034;-79
2023/12/11 00:25:27;;;;;;;1.00;0.50;;;9.80;99.90;;;;;;4977807;28;20034;-79
2023/12/11 00:27:53;;;;;;;2.88;0.60;;;9.70;99.90;;;;;;4973719;28;20065;-79
2023/12/11 00:30:18;;;;;;;2.47;0.75;;;9.70;99.90;;;;;;4976406;28;20039;-79
2023/12/11 00:32:44;;;;;;;1.70;0.57;;;9.70;99.90;;;;;;4975550;28;20106;-80
2023/12/11 00:35:10;;;;;;;1.75;0.60;;;9.60;99.90;;;;;;4971531;28;20484;-79
2023/12/11 00:37:35;;;;;;;2.35;0.70;;;9.60;99.90;;;;;;4968979;28;20122;-79
2023/12/11 00:40:01;;;;;;;1.10;0.50;;;9.60;99.90;;;;;;4974965;28;20048;-79
2023/12/11 00:42:27;;;;;;;1.58;0.50;;;9.60;99.90;;;;;;4979772;28;20456;-79
2023/12/11 00:44:52;;;;;;;1.23;0.60;;;9.60;99.90;;;;;;4984277;28;20023;-79
2023/12/11 00:47:18;;;;;;;1.83;0.60;;;9.60;99.90;;;;;;4991528;28;20055;-78
2023/12/11 00:49:43;;;;;;;1.95;0.75;;;9.60;99.90;;;;;;4977714;28;20058;-78
2023/12/11 00:52:09;;;;;;;2.35;1.05;;;9.60;99.90;;;;;;4979284;28;20120;-78
2023/12/11 00:54:35;;;;;;;3.78;1.13;;;9.60;99.90;;;;;;4978949;28;20023;-78
2023/12/11 00:57:00;;;;;;;3.67;0.88;;;9.60;99.90;;;;;;4973122;28;20488;-78
2023/12/11 00:59:26;;;;;;;8.35;1.45;;;9.60;99.90;;;;;;4979542;28;20101;-79
2023/12/11 01:01:51;;;;;;;6.38;1.05;;;9.60;99.90;;;;;;4977403;28;20070;-78
2023/12/11 01:04:17;;;;;;;3.10;0.95;;;9.50;99.90;;;;;;4979400;28;20114;-78
2023/12/11 01:06:43;;;;;;;2.88;1.00;;;9.50;99.90;;;;;;4975669;28;20073;-78
2023/12/11 01:09:08;;;;;;;3.42;1.10;;;9.40;99.90;;;;;;4970584;28;20030;-78
2023/12/11 01:11:34;;;;;;;6.03;0.90;;;9.40;99.90;;;;;;4981484;28;20031;-79
2023/12/11 01:14:00;;;;;;;6.32;1.00;;;9.40;99.90;;;;;;4977275;28;20018;-78
2023/12/11 01:16:25;;;;;;;1.92;0.70;;;9.30;99.90;;;;;;4976134;28;20475;-79
2023/12/11 01:18:51;;;;;;;2.92;0.68;;;9.30;99.90;;;;;;4975628;28;20038;-79
2023/12/11 01:21:17;;;;;;;1.13;0.40;;;9.30;99.90;;;;;;4977749;28;20428;-79
2023/12/11 01:23:42;;;;;;;3.03;0.98;;;9.30;99.90;;;;;;4975139;28;20036;-79
2023/12/11 01:26:09;;;;;;;1.88;0.80;;;9.30;99.90;;;;;;4972483;28;20286;-80
2023/12/11 01:28:34;;;;;;;1.83;0.40;;;9.20;99.90;;;;;;4975351;28;20031;-80
2023/12/11 01:31:00;;;;;;;3.58;0.70;;;9.30;99.90;;;;;;4976807;28;20038;-79
2023/12/11 01:33:26;;;;;;;1.85;0.57;;;9.30;99.90;;;;;;4972798;28;20031;-79
2023/12/11 01:35:52;;;;;;;2.38;0.80;;;9.30;99.90;;;;;;4973054;28;20034;-79
2023/12/11 01:38:17;;;;;;;1.75;0.40;;;9.30;99.90;;;;;;4974051;28;20037;-79
2023/12/11 01:40:43;;;;;;;4.70;1.00;;;9.30;99.90;;;;;;4974132;28;20476;-80
2023/12/11 01:43:13;;;;;;;3.90;0.50;;;9.30;99.90;;;;;;4971595;28;20037;-80
2023/12/11 01:45:39;;;;;;;1.25;0.50;;;9.30;99.90;;;;;;4974588;28;20035;-80
2023/12/11 01:48:06;;;;;;;4.03;0.70;;;9.40;99.90;;;;;;4974813;28;20038;-79
2023/12/11 01:50:32;;;;;;;4.53;0.57;;;9.30;99.90;;;;;;4972461;28;20030;-80
2023/12/11 01:52:58;;;;;;;1.48;0.50;;;9.40;99.90;;;;;;4977910;28;20486;-80
2023/12/11 01:55:24;;;;;;;1.45;0.50;;;9.30;99.90;;;;;;4968284;28;20503;-79
2023/12/11 01:57:50;;;;;;;3.30;0.60;;;9.30;99.90;;;;;;4976759;28;20391;-79
2023/12/11 02:00:16;;;;;;;1.25;0.80;;;9.40;99.90;;;;;;4971220;28;20051;-80
2023/12/11 02:02:42;;;;;;;1.80;0.60;;;9.40;99.90;;;;;;4973283;28;20121;-79
2023/12/11 02:05:08;;;;;;;1.63;0.38;;;9.40;99.90;;;;;;4974894;28;20526;-79
2023/12/11 02:07:33;;;;;;;1.00;0.43;;;9.40;99.90;;;;;;4973409;28;20065;-79
2023/12/11 02:09:59;;;;;;;2.20;0.60;;;9.30;99.90;;;;;;4978091;28;20026;-79
2023/12/11 02:12:25;;;;;;;1.58;0.43;;;9.30;99.90;;;;;;4974078;28;20042;-79
2023/12/11 02:14:50;;;;;;;0.77;0.40;;;9.40;99.90;;;;;;4972823;28;20029;-79
2023/12/11 02:17:16;;;;;;;1.35;0.60;;;9.40;99.90;;;;;;4970987;28;20399;-80
2023/12/11 02:19:41;;;;;;;0.73;0.30;;;9.40;99.90;;;;;;4969904;28;20023;-80
2023/12/11 02:22:08;;;;;;;2.03;0.45;;;9.40;99.90;;;;;;4974245;28;20039;-80
2023/12/11 02:24:49;;;;;;;1.55;0.30;;;9.40;99.90;;;;;;4972559;28;20030;-80
2023/12/11 02:27:15;;;;;;;1.75;0.60;;;9.40;99.90;;;;;;4972486;28;20027;-80
2023/12/11 02:29:40;;;;;;;0.98;0.57;;;9.40;99.90;;;;;;4967115;28;20030;-80
2023/12/11 02:32:06;;;;;;;0.47;0.32;;;9.40;99.90;;;;;;4972458;28;20027;-79
2023/12/11 02:34:32;;;;;;;3.35;0.40;;;9.40;99.90;;;;;;4970657;28;20037;-79
2023/12/11 02:36:57;;;;;;;0.65;0.40;;;9.40;99.90;;;;;;4972092;28;20031;-80
2023/12/11 02:39:23;;;;;;;0.55;0.20;;;9.40;99.90;;;;;;4969951;28;20519;-79
2023/12/11 02:41:48;;;;;;;0.20;0.20;;;9.40;99.90;;;;;;4978091;28;20085;-80
2023/12/11 02:44:14;;;;;;;1.15;0.20;;;9.40;99.90;;;;;;4976443;28;20027;-80
2023/12/11 02:46:40;;;;;;;0.38;0.20;;;9.40;99.90;;;;;;4969887;28;20035;-79
2023/12/11 02:49:06;;;;;;;0.80;0.28;;;9.40;99.90;;;;;;4973075;28;20045;-79
2023/12/11 02:51:31;;;;;;;0.63;0.20;;;9.40;99.90;;;;;;4972911;28;20086;-79
2023/12/11 02:53:57;;;;;;;0.30;0.20;;;9.40;99.90;;;;;;4971390;28;20026;-79
2023/12/11 02:56:22;;;;;;;0.35;0.20;;;9.40;99.90;;;;;;4972173;28;20054;-79
2023/12/11 02:58:48;;;;;;;0.68;0.20;;;9.40;99.90;;;;;;4975904;28;20027;-80
2023/12/11 03:01:15;;;;;;;0.28;0.20;;;9.40;99.90;;;;;;4974725;28;20465;-80
2023/12/11 03:03:41;;;;;;;0.73;0.30;;;9.30;99.90;;;;;;4968358;28;20425;-80
2023/12/11 03:06:08;;;;;;;0.98;0.20;;;9.30;99.90;;;;;;4978315;28;20077;-79
2023/12/11 03:08:36;;;;;;;0.95;0.30;;;9.30;99.90;;;;;;4972285;28;20118;-79
2023/12/11 03:11:02;;;;;;;0.25;0.17;;;9.30;99.90;;;;;;4971439;28;20042;-79
2023/12/11 03:13:27;;;;;;;0.10;0.10;;;9.30;99.90;;;;;;4970534;28;20435;-79
2023/12/11 03:15:53;;;;;;;0.57;0.10;;;9.30;99.90;;;;;;4972037;28;20058;-80
2023/12/11 03:18:19;;;;;;;0.43;0.20;;;9.30;99.90;;;;;;4977666;28;20037;-79
2023/12/11 03:20:44;;;;;;;0.10;0.10;;;9.30;99.90;;;;;;4970053;28;20435;-79
2023/12/11 03:23:10;;;;;;;1.08;0.28;;;9.20;99.90;;;;;;4971449;28;20050;-80
2023/12/11 03:25:36;;;;;;;0.40;0.20;;;9.20;99.90;;;;;;4967536;28;20026;-80
2023/12/11 03:28:02;;;;;;;0.80;0.30;;;9.10;99.90;;;;;;4967775;28;20028;-80
2023/12/11 03:30:28;;;;;;;1.23;0.50;;;9.10;99.90;;;;;;4966532;28;20050;-79
2023/12/11 03:32:54;;;;;;;1.02;0.35;;;9.10;99.90;;;;;;4967902;28;20053;-79
2023/12/11 03:35:19;;;;;;;0.35;0.20;;;9.10;99.90;;;;;;4977671;28;20033;-79
2023/12/11 03:37:45;;;;;;;0.17;0.10;;;9.10;99.90;;;;;;4971455;28;20035;-79
2023/12/11 03:40:11;;;;;;;0.10;0.10;;;9.10;99.90;;;;;;4972746;28;20069;-79
2023/12/11 03:42:37;;;;;;;0.75;0.20;;;9.10;99.90;;;;;;4977090;28;20396;-80
2023/12/11 03:45:03;;;;;;;0.32;0.20;;;9.10;99.90;;;;;;4976930;28;20042;-79
2023/12/11 03:47:28;;;;;;;0.63;0.20;;;9.20;99.90;;;;;;4975061;28;20543;-79
2023/12/11 03:49:54;;;;;;;0.85;0.20;;;9.20;99.90;;;;;;4974217;28;20041;-79
2023/12/11 03:52:20;;;;;;;0.55;0.20;;;9.20;99.90;;;;;;4976287;28;20806;-79
2023/12/11 03:54:46;;;;;;;1.40;0.20;;;9.30;99.90;;;;;;4972615;28;20062;-79
2023/12/11 03:57:12;;;;;;;0.20;0.20;;;9.30;99.90;;;;;;4976880;28;20084;-79
2023/12/11 03:59:37;;;;;;;0.17;0.10;;;9.30;99.90;;;;;;4978788;28;20040;-80
2023/12/11 04:02:03;;;;;;;0.25;0.20;;;9.30;99.90;;;;;;4976877;28;20029;-80
2023/12/11 04:04:30;;;;;;;2.20;0.50;;;9.40;99.90;;;;;;4976050;28;20110;-80
2023/12/11 04:06:55;;;;;;;0.45;0.10;;;9.40;99.90;;;;;;4973412;28;20034;-80
2023/12/11 04:09:21;;;;;;;0.20;0.10;;;9.40;99.90;;;;;;4987252;28;20023;-80
2023/12/11 04:11:47;;;;;;;1.15;0.20;;;9.40;99.90;;;;;;4980092;28;20029;-80
2023/12/11 04:14:12;;;;;;;0.82;0.30;;;9.40;99.90;;;;;;4977050;28;20037;-79
2023/12/11 04:16:41;;;;;;;0.45;0.20;;;9.40;99.90;;;;;;4978471;28;20033;-79
2023/12/11 04:19:07;;;;;;;0.25;0.15;;;9.40;99.90;;;;;;4977022;28;20090;-79
2023/12/11 04:21:33;;;;;;;0.57;0.35;;;9.40;99.90;;;;;;4976435;28;20480;-80
2023/12/11 04:23:59;;;;;;;0.47;0.20;;;9.40;99.90;;;;;;4973563;28;20028;-80
2023/12/11 04:26:24;;;;;;;0.47;0.10;;;9.40;99.90;;;;;;4970168;28;20026;-80
2023/12/11 04:28:50;;;;;;;0.38;0.15;;;9.40;99.90;;;;;;4971279;28;20117;-80
2023/12/11 04:31:16;;;;;;;0.60;0.28;;;9.50;99.90;;;;;;4975366;28;20046;-79
2023/12/11 04:33:41;;;;;;;2.17;0.20;;;9.50;99.90;;;;;;4974921;28;20035;-79
2023/12/11 04:36:08;;;;;;;0.35;0.10;;;9.50;99.90;;;;;;4978814;28;20061;-79
2023/12/11 04:38:34;;;;;;;0.22;0.22;;;9.50;99.90;;;;;;4976896;28;20041;-79
2023/12/11 04:41:00;;;;;;;0.20;0.20;;;9.50;99.90;;;;;;4973129;28;20383;-79
2023/12/11 04:43:25;;;;;;;0.45;0.20;;;9.50;99.90;;;;;;4969783;28;20111;-80
2023/12/11 04:45:51;;;;;;;0.50;0.17;;;9.50;99.90;;;;;;4970056;28;20022;-80
2023/12/11 04:48:17;;;;;;;0.43;0.10;;;9.50;99.90;;;;;;4976895;28;20031;-80
2023/12/11 04:50:42;;;;;;;0.47;0.22;;;9.50;99.90;;;;;;4974934;28;20110;-80
2023/12/11 04:53:08;;;;;;;0.20;0.20;;;9.60;99.90;;;;;;4972981;28;20416;-80
2023/12/11 04:55:33;;;;;;;0.93;0.38;;;9.60;99.90;;;;;;4975888;28;20094;-79
2023/12/11 04:57:59;;;;;;;2.72;0.20;;;9.50;99.90;;;;;;4975234;28;20026;-80
2023/12/11 05:00:25;;;;;;;0.43;0.20;;;9.50;99.90;;;;;;4973732;28;20035;-79
2023/12/11 05:02:50;;;;;;;0.32;0.20;;;9.50;99.90;;;;;;4976141;28;20500;-81
2023/12/11 05:05:16;;;;;;;1.58;0.32;;;9.50;99.90;;;;;;4973510;28;20054;-79
2023/12/11 05:07:42;;;;;;;0.25;0.20;;;9.50;99.90;;;;;;4974170;28;20119;-80
2023/12/11 05:10:08;;;;;;;0.73;0.20;;;9.50;99.90;;;;;;4974564;28;20094;-80
2023/12/11 05:12:34;;;;;;;0.47;0.30;;;9.50;99.90;;;;;;4977796;28;20034;-80
2023/12/11 05:15:01;;;;;;;0.20;0.20;;;9.50;99.90;;;;;;4970532;28;20030;-80
2023/12/11 05:17:27;;;;;;;0.80;0.20;;;9.50;99.90;;;;;;4976639;28;20026;-79
2023/12/11 05:19:53;;;;;;;3.13;0.38;;;9.40;99.90;;;;;;4972475;28;20436;-80
2023/12/11 05:22:19;;;;;;;0.45;0.20;;;9.40;99.90;;;;;;4972172;28;20125;-80
2023/12/11 05:24:44;;;;;;;1.15;0.30;;;9.40;99.90;;;;;;4976176;28;20030;-80
2023/12/11 05:27:11;;;;;;;0.55;0.20;;;9.40;99.90;;;;;;4971467;28;20097;-80
2023/12/11 05:29:37;;;;;;;1.02;0.20;;;9.40;99.90;;;;;;4975174;28;20030;-80
2023/12/11 05:32:03;;;;;;;0.73;0.20;;;9.40;99.90;;;;;;4972883;28;20027;-80
2023/12/11 05:34:29;;;;;;;1.85;0.20;;;9.40;99.90;;;;;;4974380;28;20054;-79
2023/12/11 05:36:54;;;;;;;0.55;0.20;;;9.40;99.90;;;;;;4972534;28;20364;-79
2023/12/11 05:39:20;;;;;;;0.73;0.20;;;9.40;99.90;;;;;;4972253;28;20026;-80
2023/12/11 05:41:45;;;;;;;0.35;0.30;;;9.40;99.90;;;;;;4972082;28;20096;-79
2023/12/11 05:44:11;;;;;;;0.25;0.15;;;9.40;99.90;;;;;;4975497;28;20030;-79
2023/12/11 05:46:37;;;;;;;0.45;0.20;;;9.40;99.90;;;;;;4976413;28;20034;-80
2023/12/11 05:49:02;;;;;;;0.50;0.30;;;9.40;99.90;;;;;;4975809;28;20030;-79
2023/12/11 05:51:28;;;;;;;0.45;0.22;;;9.40;99.90;;;;;;4967993;28;20043;-81
2023/12/11 05:53:56;;;;;;;0.40;0.13;;;9.40;99.90;;;;;;4975417;28;20113;-79
2023/12/11 05:56:22;;;;;;;0.15;0.13;;;9.50;99.90;;;;;;4974702;28;20085;-79
2023/12/11 05:58:47;;;;;;;2.35;0.30;;;9.50;99.90;;;;;;4971803;28;20034;-79
2023/12/11 06:01:15;;;;;;;0.65;0.30;;;9.50;99.90;;;;;;4976548;28;20039;-79
2023/12/11 06:03:42;;;;;;;3.20;0.57;;;9.50;99.90;;;;;;4977676;28;20045;-78
2023/12/11 06:06:17;;;;;;;1.23;0.35;;;9.50;99.90;;;;;;4970717;28;20110;-80
2023/12/11 06:08:44;;;;;;;2.15;0.40;;;9.50;99.90;;;;;;4974031;28;20038;-79
2023/12/11 06:11:10;;;;;;;4.10;0.52;;;9.50;99.90;;;;;;4980458;28;20034;-82
2023/12/11 06:13:36;;;;;;;1.00;0.30;;;9.60;99.90;;;;;;4983890;28;20027;-81
2023/12/11 06:16:02;;;;;;;1.00;0.50;;;9.80;99.90;;;;;;4982195;28;20033;-81
2023/12/11 06:18:29;;;;;;;1.00;0.30;;;9.90;99.90;;;;;;4980960;28;20756;-83
2023/12/11 06:20:54;;;;;;;1.17;0.40;;;10.10;99.90;;;;;;4978471;28;20062;-81
2023/12/11 06:23:23;;;;;;;0.60;0.30;;;10.20;99.90;;;;;;4978773;28;20027;-81
2023/12/11 06:25:48;;;;;;;1.27;0.30;;;10.20;99.90;;;;;;4983175;28;20035;-81
2023/12/11 06:28:14;;;;;;;1.75;0.50;;;10.10;99.90;;;;;;4977166;28;20316;-82
2023/12/11 06:30:39;;;;;;;0.98;0.50;;;10.10;99.90;;;;;;4972882;28;20050;-81
2023/12/11 06:33:05;;;;;;;0.80;0.40;;;10.00;99.90;;;;;;4978068;28;20086;-80
2023/12/11 06:35:31;;;;;;;0.40;0.30;;;10.00;99.90;;;;;;4974228;28;20157;-81
2023/12/11 06:37:57;;;;;;;0.85;0.30;;;10.00;99.90;;;;;;4978806;28;20038;-80
2023/12/11 06:40:22;;;;;;;1.52;0.40;;;9.90;99.90;;;;;;4983267;28;20027;-81
2023/12/11 06:42:48;;;;;;;0.77;0.32;;;9.90;99.90;;;;;;4971022;28;20052;-81
2023/12/11 06:45:13;;;;;;;0.77;0.30;;;9.90;99.90;;;;;;4975329;28;20052;-81
2023/12/11 06:47:39;;;;;;;1.17;0.30;;;9.90;99.90;;;;;;4993197;28;20136;-82
2023/12/11 06:50:05;;;;;;;3.10;0.38;;;9.90;99.90;;;;;;4968496;28;20097;-81
2023/12/11 06:52:31;;;;;;;0.57;0.30;;;9.90;99.90;;;;;;4979882;28;20023;-81
2023/12/11 06:54:57;;;;;;;0.20;0.20;;;9.90;99.90;;;;;;4974713;28;20484;-79
2023/12/11 06:57:22;;;;;;;1.05;0.30;;;9.90;99.90;;;;;;4977508;28;20027;-80
2023/12/11 06:59:48;;;;;;;0.90;0.30;;;9.90;99.90;;;;;;4980297;28;20688;-80
2023/12/11 07:02:14;;;;;;;0.80;0.30;;;9.90;99.90;;;;;;4977397;28;20031;-80
2023/12/11 07:04:43;;;;;;;0.77;0.30;;;9.90;99.90;;;;;;4977365;28;20020;-80
2023/12/11 07:07:09;;;;;;;1.80;0.28;;;9.90;99.90;;;;;;4971484;28;20066;-80
2023/12/11 07:09:35;;;;;;;0.60;0.30;;;10.00;99.90;;;;;;4980216;28;20387;-80
2023/12/11 07:12:01;;;;;;;1.15;0.30;;;9.90;99.90;;;;;;4977020;28;20034;-80
2023/12/11 07:14:27;;;;;;;1.05;0.30;;;10.00;99.90;;;;;;4981140;28;20574;-81
2023/12/11 07:16:53;;;;;;;0.52;0.28;;;10.00;99.90;;;;;;4995709;28;20027;-81
2023/12/11 07:19:21;;;;;;;0.25;0.20;;;10.00;99.90;;;;;;4990227;28;20027;-80
2023/12/11 07:21:47;;;;;;;1.65;0.30;;;10.00;99.90;;;;;;4984885;28;20031;-80
2023/12/11 07:24:13;;;;;;;0.30;0.20;;;10.00;99.90;;;;;;4989765;28;20039;-79
2023/12/11 07:26:38;;;;;;;1.75;0.20;;;10.00;99.90;;;;;;4997463;28;20062;-80
2023/12/11 07:29:06;;;;;;;1.58;0.25;;;10.00;99.90;;;;;;4994890;28;20069;-80
2023/12/11 07:31:32;;;;;;;2.15;0.55;;;10.00;99.90;;;;;;4991417;28;20034;-80
2023/12/11 07:33:58;;;;;;;5.25;0.70;;;10.00;99.90;;;;;;4987083;28;20039;-80
2023/12/11 07:36:23;;;;;;;1.10;0.45;;;10.00;99.90;;;;;;4978272;28;20063;-81
2023/12/11 07:38:49;;;;;;;0.70;0.40;;;10.10;99.90;;;;;;4979751;28;20093;-81
2023/12/11 07:41:22;;;;;;;0.45;0.38;;;10.10;99.90;;;;;;4978897;28;20041;-81
2023/12/11 07:43:48;;;;;;;0.50;0.28;;;10.10;99.90;;;;;;4980171;28;20030;-78
2023/12/11 07:46:18;;;;;;;0.80;0.50;;;10.10;99.90;;;;;;4980289;28;20038;-78
2023/12/11 07:48:44;;;;;;;0.50;0.30;;;10.10;99.90;;;;;;4977686;28;20035;-79
2023/12/11 07:51:20;;;;;;;1.08;0.30;;;10.10;99.90;;;;;;4977296;28;20054;-78
2023/12/11 07:53:47;;;;;;;0.57;0.40;;;10.20;99.90;;;;;;4975154;28;20043;-79
2023/12/11 07:56:40;;;;;;;1.38;0.28;;;10.20;99.90;;;;;;4974606;28;20034;-78
2023/12/11 07:59:06;;;;;;;2.83;1.13;;;10.20;99.90;;;;;;4983410;28;20035;-80
2023/12/11 08:01:33;;;;;;;1.00;0.50;;;10.20;99.90;;;;;;4962678;28;20078;-79
2023/12/11 08:03:59;;;;;;;4.35;0.80;;;10.20;99.90;;;;;;4962205;28;20026;-80
2023/12/11 08:06:25;;;;;;;6.47;1.30;;;10.20;99.90;;;;;;4976088;28;20027;-80
2023/12/11 08:08:51;;;;;;;5.47;1.20;;;10.20;99.90;;;;;;4978806;28;20067;-80
2023/12/11 08:11:21;;;;;;;3.15;2.10;;;10.10;99.90;;;;;;4981980;28;20078;-80
2023/12/11 08:13:48;;;;;;;2.80;1.77;;;10.10;99.90;;;;;;4978741;28;20054;-80
2023/12/11 08:16:14;;;;;;;4.65;2.45;;;10.10;99.90;;;;;;4974561;28;20047;-79
2023/12/11 08:18:41;;;;;;;2.97;1.52;;;10.00;99.90;;;;;;4979273;28;20391;-80
2023/12/11 08:21:07;;;;;;;3.20;1.10;;;10.00;99.90;;;;;;4971325;28;20372;-80
2023/12/11 08:23:32;;;;;;;2.80;1.17;;;10.00;99.90;;;;;;4982215;28;20031;-79
2023/12/11 08:25:58;;;;;;;2.25;1.00;;;9.90;99.90;;;;;;4977641;28;20023;-80
2023/12/11 08:28:24;;;;;;;1.75;0.90;;;9.90;99.90;;;;;;4981204;28;20042;-80
2023/12/11 08:30:50;;;;;;;3.38;1.00;;;9.90;99.90;;;;;;4999111;28;20023;-80
2023/12/11 08:33:15;;;;;;;2.13;0.82;;;9.90;99.90;;;;;;5000206;28;20015;-79
2023/12/11 08:35:41;;;;;;;3.83;1.05;;;9.80;99.90;;;;;;4990120;28;20030;-79
2023/12/11 08:38:07;;;;;;;1.48;0.75;;;9.80;99.90;;;;;;4980194;28;20046;-79
2023/12/11 08:40:32;;;;;;;2.80;0.98;;;9.80;99.90;;;;;;4975015;28;20034;-79
2023/12/11 08:42:58;;;;;;;2.22;0.93;;;9.80;99.90;;;;;;4976460;28;20535;-80
2023/12/11 08:45:24;;;;;;;7.60;1.38;;;9.80;99.90;;;;;;4976953;28;20026;-80
2023/12/11 08:47:50;;;;;;;4.15;0.90;;;9.90;99.90;;;;;;4980618;28;20031;-80
2023/12/11 08:50:16;;;;;;;3.58;0.70;;;9.90;99.90;;;;;;4980708;28;20030;-79
2023/12/11 08:52:43;;;;;;;2.25;0.77;;;9.80;99.90;;;;;;4975717;28;20026;-80
2023/12/11 08:55:09;;;;;;;2.15;0.65;;;9.90;99.90;;;;;;4980374;28;20031;-80
2023/12/11 08:57:35;;;;;;;1.83;0.90;;;9.90;99.90;;;;;;4976533;28;20050;-80
2023/12/11 09:00:03;;;;;;;4.60;1.10;;;9.90;99.90;;;;;;4980950;28;20031;-80
2023/12/11 09:02:29;;;;;;;2.25;0.90;;;9.90;99.90;;;;;;4976771;28;20035;-79
2023/12/11 09:04:55;;;;;;;1.58;0.88;;;9.90;99.90;;;;;;4980901;28;20035;-81
2023/12/11 09:07:20;;;;;;;4.03;1.50;;;9.90;99.90;;;;;;4979011;28;20042;-80
2023/12/11 09:09:46;;;;;;;3.20;1.60;;;10.00;99.90;;;;;;4981446;28;20041;-79
2023/12/11 09:12:12;;;;;;;3.90;1.90;;;10.00;99.90;;;;;;4978855;28;20039;-79
2023/12/11 09:14:37;;;;;;;4.70;1.42;;;10.00;99.90;;;;;;4979068;28;20026;-80
2023/12/11 09:17:03;;;;;;;4.85;1.60;;;10.00;99.90;;;;;;4980776;28;20062;-80
2023/12/11 09:19:29;;;;;;;4.25;1.10;;;10.00;99.90;;;;;;4978392;28;20489;-81
2023/12/11 09:21:55;;;;;;;4.97;1.30;;;10.00;99.90;;;;;;4979559;28;20018;-80
2023/12/11 09:24:20;;;;;;;3.28;1.05;;;10.00;99.90;;;;;;4979983;28;20110;-80
2023/12/11 09:26:46;;;;;;;5.68;1.00;;;10.00;99.90;;;;;;4978266;28;20030;-80
2023/12/11 09:29:12;;;;;;;4.13;0.98;;;10.10;99.90;;;;;;4974886;28;20037;-79
2023/12/11 09:31:39;;;;;;;2.10;1.02;;;10.10;99.90;;;;;;4975032;28;20073;-80
2023/12/11 09:34:05;;;;;;;2.83;1.05;;;10.10;99.90;;;;;;4976371;28;20377;-80
2023/12/11 09:36:30;;;;;;;2.53;1.27;;;10.10;99.90;;;;;;4973689;28;20055;-79
2023/12/11 09:38:58;;;;;;;7.68;1.52;;;10.10;99.90;;;;;;4976430;28;20022;-80
2023/12/11 09:41:27;;;;;;;4.90;1.52;;;10.10;99.90;;;;;;4974601;28;20027;-79
2023/12/11 09:43:53;;;;;;;2.55;1.08;;;10.10;99.90;;;;;;4976297;28;20038;-79
2023/12/11 09:46:19;;;;;;;3.28;1.10;;;10.10;99.90;;;;;;4975287;28;20039;-79
2023/12/11 09:48:46;;;;;;;2.15;1.00;;;10.20;99.90;;;;;;4968807;28;20035;-80
2023/12/11 09:51:15;;;;;;;1.75;0.82;;;10.20;99.90;;;;;;4975816;28;20054;-79
2023/12/11 09:53:41;;;;;;;3.55;1.15;;;10.20;99.90;;;;;;4967812;28;20030;-79
2023/12/11 09:56:08;;;;;;;3.20;1.27;;;10.30;99.90;;;;;;4973837;28;20031;-79
2023/12/11 09:58:35;;;;;;;2.58;0.88;;;10.30;99.90;;;;;;4977412;28;20492;-79
2023/12/11 10:01:02;;;;;;;4.10;1.30;;;10.30;99.90;;;;;;4976662;28;20106;-80
2023/12/11 10:03:28;;;;;;;2.65;1.10;;;10.40;99.90;;;;;;4971547;28;20105;-79
2023/12/11 10:06:00;;;;;;;3.28;1.48;;;10.40;99.90;;;;;;4973203;28;20030;-79
2023/12/11 10:08:26;;;;;;;8.02;2.00;;;10.50;99.90;;;;;;4973383;28;20158;-79
2023/12/11 10:11:13;;;;;;;4.50;1.00;;;10.50;99.90;;;;;;4974182;28;20165;-79
2023/12/11 10:13:39;;;;;;;2.95;1.05;;;10.50;99.90;;;;;;4974800;28;20043;-79
2023/12/11 10:16:25;;;;;;;1.20;0.60;;;10.50;99.90;;;;;;4970891;28;20488;-80
2023/12/11 10:18:50;;;;;;;2.25;1.15;;;10.60;99.90;;;;;;4965335;28;20502;-80
2023/12/11 10:21:16;;;;;;;1.67;0.60;;;10.70;99.90;;;;;;4971272;28;20023;-80
2023/12/11 10:23:42;;;;;;;1.45;0.70;;;10.70;99.90;;;;;;4965967;28;20041;-78
2023/12/11 10:26:08;;;;;;;2.50;0.75;;;10.70;99.90;;;;;;4969215;28;20027;-80
2023/12/11 10:28:34;;;;;;;0.90;0.50;;;10.80;99.90;;;;;;4976442;28;20049;-80
2023/12/11 10:31:04;;;;;;;1.85;0.40;;;10.70;99.90;;;;;;4977874;28;20031;-80
2023/12/11 10:33:30;;;;;;;2.13;0.70;;;10.80;99.90;;;;;;4973364;28;20031;-79
2023/12/11 10:36:15;;;;;;;0.50;0.50;;;10.80;99.90;;;;;;4972583;28;20039;-79
2023/12/11 10:38:42;;;;;;;3.55;0.50;;;10.80;99.90;;;;;;4972740;28;20026;-80
2023/12/11 10:41:23;;;;;;;6.03;0.55;;;10.90;99.90;;;;;;4979273;28;20082;-80
2023/12/11 10:43:48;;;;;;;1.48;0.40;;;10.90;99.90;;;;;;4968869;28;20034;-79
2023/12/11 10:46:14;;;;;;;1.08;0.45;;;11.00;99.90;;;;;;4969516;28;20037;-80
2023/12/11 10:48:40;;;;;;;1.73;0.60;;;11.10;99.90;;;;;;4974506;28;20031;-81
2023/12/11 10:51:06;;;;;;;0.73;0.40;;;11.20;99.90;;;;;;4978199;28;20037;-80
2023/12/11 10:53:35;;;;;;;2.65;0.50;;;11.40;99.90;;;;;;4974532;28;20038;-80
2023/12/11 10:56:02;;;;;;;0.38;0.30;;;11.40;99.90;;;;;;4983026;28;20026;-79
2023/12/11 10:58:28;;;;;;;1.08;0.30;;;11.40;99.90;;;;;;4980765;28;20030;-81
2023/12/11 11:00:57;;;;;;;0.73;0.30;;;11.50;99.90;;;;;;4974799;28;20365;-81
2023/12/11 11:03:23;;;;;;;2.53;0.40;;;11.50;99.90;;;;;;4976710;28;20023;-79
2023/12/11 11:05:50;;;;;;;0.60;0.38;;;11.50;99.90;;;;;;4974126;28;20039;-80
2023/12/11 11:08:24;;;;;;;1.85;0.40;;;11.50;99.90;;;;;;4975990;28;20379;-80
2023/12/11 11:11:04;;;;;;;0.63;0.25;;;11.50;99.90;;;;;;4980461;28;20030;-80
2023/12/11 11:13:38;;;;;;;1.38;0.32;;;11.50;99.90;;;;;;4988803;28;20034;-80
2023/12/11 11:16:03;;;;;;;0.50;0.30;;;11.60;99.90;;;;;;4975978;28;20037;-79
2023/12/11 11:18:29;;;;;;;0.25;0.25;;;11.60;99.90;;;;;;4972282;28;20396;-79
2023/12/11 11:21:09;;;;;;;0.68;0.30;;;11.60;99.90;;;;;;4976112;28;20023;-79
2023/12/11 11:23:42;;;;;;;1.75;0.32;;;11.70;99.90;;;;;;4976777;28;20029;-81
2023/12/11 11:26:33;;;;;;;2.47;0.28;;;11.70;99.90;;;;;;4977826;28;20050;-79
2023/12/11 11:28:58;;;;;;;2.03;0.20;;;11.70;99.90;;;;;;4966559;28;20031;-79
2023/12/11 11:31:51;;;;;;;0.68;0.40;;;11.70;99.90;;;;;;4976417;28;20439;-78
2023/12/11 11:34:44;;;;;;;0.73;0.30;;;11.70;99.90;;;;;;4971043;28;20057;-79
2023/12/11 11:37:14;;;;;;;3.92;0.55;;;11.70;99.90;;;;;;4976851;28;20031;-79
2023/12/11 11:39:59;;;;;;;2.15;0.70;;;11.70;99.90;;;;;;4975145;28;20042;-79
2023/12/11 11:42:30;;;;;;;2.28;0.30;;;11.70;99.90;;;;;;4977736;28;20504;-80
2023/12/11 11:44:58;;;;;;;1.42;0.60;;;11.70;99.90;;;;;;4975928;28;20046;-80
2023/12/11 11:47:24;;;;;;;1.52;0.70;;;11.70;99.90;;;;;;4978656;28;20034;-80
2023/12/11 11:49:50;;;;;;;1.85;0.50;;;11.70;99.90;;;;;;4975599;28;20038;-80
2023/12/11 11:52:27;;;;;;;1.58;0.60;;;11.80;99.90;;;;;;4976447;28;20023;-79
2023/12/11 11:55:26;;;;;;;1.23;0.50;;;11.80;99.90;;;;;;4976784;28;21671;-79
2023/12/11 11:57:53;;;;;;;0.82;0.38;;;11.80;99.90;;;;;;4975215;28;20077;-78
2023/12/11 12:00:27;;;;;;;0.85;0.35;;;11.90;99.90;;;;;;4972221;28;20026;-78
2023/12/11 12:03:03;;;;;;;1.50;0.40;;;11.80;99.90;;;;;;4972461;28;20023;-78
2023/12/11 12:05:29;;;;;;;0.52;0.22;;;11.80;99.90;;;;;;4972290;28;20299;-79
2023/12/11 12:07:55;;;;;;;4.00;0.82;;;11.80;99.90;;;;;;4978220;28;20035;-79
2023/12/11 12:10:20;;;;;;;1.27;0.30;;;11.80;99.90;;;;;;4978012;28;20035;-78
2023/12/11 12:12:52;;;;;;;1.67;0.40;;;11.80;99.90;;;;;;4972644;28;20040;-79
2023/12/11 12:15:17;;;;;;;2.38;0.57;;;11.80;99.90;;;;;;4974252;28;20030;-79
2023/12/11 12:17:45;;;;;;;2.60;0.80;;;11.70;99.90;;;;;;4980473;28;20049;-79
2023/12/11 12:20:16;;;;;;;1.30;0.70;;;11.80;99.90;;;;;;4982373;28;20026;-79
2023/12/11 12:23:01;;;;;;;2.42;0.50;;;11.70;99.90;;;;;;4980958;28;20027;-78
2023/12/11 12:25:28;;;;;;;3.10;0.70;;;11.80;99.90;;;;;;4982209;28;20027;-79
2023/12/11 12:27:56;;;;;;;1.98;0.65;;;11.70;99.90;;;;;;4971625;28;20082;-79
2023/12/11 12:30:22;;;;;;;1.92;0.63;;;11.80;99.90;;;;;;4971333;28;20031;-78
2023/12/11 12:32:50;;;;;;;3.85;0.57;;;11.70;99.90;;;;;;4979307;28;20049;-79
2023/12/11 12:35:19;;;;;;;4.00;0.60;;;11.70;99.90;;;;;;4973457;28;20027;-78
2023/12/11 12:37:47;;;;;;;0.50;0.30;;;11.70;99.90;;;;;;4978296;28;20051;-79
2023/12/11 12:40:13;;;;;;;1.48;0.40;;;11.70;99.90;;;;;;4978096;28;20078;-79
2023/12/11 12:42:39;;;;;;;0.60;0.32;;;11.70;99.90;;;;;;4973629;28;20115;-79
2023/12/11 12:45:06;;;;;;;0.82;0.38;;;11.80;99.90;;;;;;4974714;28;20034;-80
2023/12/11 12:47:32;;;;;;;1.67;0.45;;;11.80;99.90;;;;;;4971774;28;20027;-78
2023/12/11 12:49:58;;;;;;;1.42;0.50;;;11.80;99.90;;;;;;4975329;28;20072;-81
2023/12/11 12:52:25;;;;;;;2.33;0.40;;;11.80;99.90;;;;;;4976161;28;20019;-80